Main page
METAR-TAF:

METAR-TAF

Airports :

Al Qaisumah/Hafr Al Batin Airport

Qaisumah, Saudi Arabia

latitude: 28-19N, longitude: 046-07E, elevation: 358 m

Current weather observation

The report was made 42 minutes ago, at 15:00 UTC
Wind 10 kt from the North
Temperature 38°C
Humidity 29%
Pressure 1007 hPa
Visibility 10 km or more
Few clouds at a height of 3500 ft

METAR: OEPA 201500Z 36010KT 9999 FEW035 38/17 Q1007 NOSIG

Time: 18:42 (15:42 UTC)

Forecast

The report was made 4 hours and 42 minutes ago, at 11:00 UTC
Forecast valid from 20 at 12 UTC to 21 at 18 UTC
Wind 6 kt from the East with gusts up to 16 kt
Visibility: 7000 m
Few clouds at a height of 4000 ft
Scattered clouds at a height of 10000 ft
Temporary
from 20 at 12 UTC to 20 at 20 UTC
Few clouds at a height of 3000 ft, Cumulonimbus.
Becoming
from 20 at 20 UTC to 20 at 22 UTC
Wind 3 kt from variable directions

TAF: OEPA 201100Z 2012/2118 10006G16KT 7000 FEW040 SCT100 TEMPO 2012/2020 FEW030CB BECMG 2020/2022 VRB03KT

Weather observations and forecasts of more than 4000 airports (METAR and TAF reports).

The available stations are represented by yellow and red dots on the map.

Hover mouse over dot to see the name of the station.

Then click to see weather observations and forecasts.

To change the map : click on the green buttons with a black cross to zoom in, on the green button with a dash to zoom out, or on the green arrows for adjacent maps.


METAR-TAF: